Kent Woodlands, California
Current Conditions -  °F | °C
As of 7:55 AM on Wednesday 26 Nov 2014 (Local Time) from KDVO Reporting Station
Clear Clear  
Wind Chill: 50°   Ceiling: Unl
Heat Index: 50°   Visibility: 10mi
Dew Point: 48°   Wind: 8mph
Humidity: 94%   Direction: 210°SSW
Pressure: 30.33"   Gusts: NA
Location:  37.949°N, 122.546°W
Report Text: KDVO 261555Z AUTO 21007KT 10SM CLR 10/09 A3033 RMK AO2
Loading
Personal Weather Stations






























Interactive Weather Map New forecast layout! Learn more

10-Day Weather Forecast

Advertisements
Track Severe Weather on mobile